Terminal Aerodrome Forecast
Issued by NWS

Home | Current Version | Previous Version | Text Only | Print | Product List | Glossary On
Versions: 1 2 3 4 5 6 7 8 9 10 11 12 13 14 15
000
FTAK31 PAJN 231131
TAFAWG
TAF
PAWG 231131Z 2312/2412 12004KT P6SM -SHRA FEW008 BKN025 OVC050
      TEMPO 2313/2317 4SM -SHRA BR BKN005 OVC010
     FM231800 13007KT P6SM -SHRA SCT010 OVC025
     FM240200 12013G20KT 4SM -RA BR SCT005 OVC012 WS020/18035KT
      AMD LTD TO CLD VIS AND WIND 2312/2315=

USA.gov is the U.S. government's official web portal to all federal, state and local government web resources and services.